createdAt,value
2018-12-08T00:00:07.562Z,65.27
2018-12-08T00:02:44.012Z,63.30
2018-12-08T00:05:15.167Z,55.70
2018-12-08T00:07:50.382Z,53.27
2018-12-08T00:10:23.146Z,61.20
2018-12-08T00:12:56.165Z,66.27
2018-12-08T00:15:27.763Z,55.43
2018-12-08T00:17:59.418Z,54.67
2018-12-08T00:20:30.552Z,64.20
2018-12-08T00:23:01.496Z,46.63
2018-12-08T00:28:08.976Z,55.93
2018-12-08T00:32:48.405Z,62.03
2018-12-08T00:35:20.047Z,66.20
2018-12-08T00:37:50.684Z,68.40
2018-12-08T00:40:24.188Z,50.53
2018-12-08T00:42:54.472Z,58.83
2018-12-08T00:45:24.907Z,55.37
2018-12-08T00:47:55.990Z,49.20
2018-12-08T00:50:26.430Z,63.07
2018-12-08T00:52:57.272Z,67.37
2018-12-08T00:55:27.973Z,63.33
2018-12-08T00:57:58.324Z,59.20
2018-12-08T01:00:29.432Z,48.63
2018-12-08T01:03:00.070Z,53.03
2018-12-08T01:05:31.094Z,56.93
2018-12-08T01:08:01.409Z,47.90
2018-12-08T01:10:32.673Z,49.57
2018-12-08T01:13:03.335Z,50.63
2018-12-08T01:15:33.846Z,63.03
2018-12-08T01:18:04.260Z,52.10
2018-12-08T01:20:34.935Z,46.17
2018-12-08T01:23:06.400Z,56.53
2018-12-08T01:25:36.956Z,45.10
2018-12-08T01:28:07.680Z,54.57
2018-12-08T01:30:38.458Z,49.93
2018-12-08T01:33:08.907Z,44.00
2018-12-08T01:35:39.535Z,53.63
2018-12-08T01:38:10.314Z,44.97
2018-12-08T01:40:40.820Z,50.87
2018-12-08T01:43:10.997Z,46.93
2018-12-08T01:45:42.122Z,46.33
2018-12-08T01:48:12.451Z,46.37
2018-12-08T01:50:42.763Z,48.50
2018-12-08T01:53:12.676Z,43.33
2018-12-08T01:55:44.045Z,46.30
2018-12-08T01:58:14.396Z,48.90
2018-12-08T02:00:45.107Z,53.00
2018-12-08T02:03:15.081Z,54.70
2018-12-08T02:05:45.218Z,50.13
2018-12-08T02:08:15.455Z,48.17
2018-12-08T02:10:48.219Z,44.70
2018-12-08T02:13:18.399Z,45.93
2018-12-08T02:15:48.351Z,47.30
2018-12-08T02:18:18.400Z,46.07
2018-12-08T02:20:48.762Z,44.53
2018-12-08T02:23:18.830Z,45.30
2018-12-08T02:25:49.838Z,43.07
2018-12-08T02:28:21.079Z,43.77
2018-12-08T02:30:51.437Z,40.73
2018-12-08T02:33:21.775Z,42.40
2018-12-08T02:35:51.886Z,43.40
2018-12-08T02:38:22.880Z,43.83
2018-12-08T02:40:53.188Z,43.60
2018-12-08T02:43:23.790Z,44.17
2018-12-08T02:45:54.265Z,43.17
2018-12-08T02:48:24.964Z,45.30
2018-12-08T02:50:55.359Z,48.40
2018-12-08T02:53:25.584Z,45.60
2018-12-08T02:55:55.913Z,44.27
2018-12-08T02:58:26.598Z,47.43
2018-12-08T03:00:56.845Z,48.07
2018-12-08T03:03:27.449Z,48.00
2018-12-08T03:05:57.316Z,48.43
2018-12-08T03:08:27.887Z,48.00
2018-12-08T03:10:58.443Z,49.13
2018-12-08T03:13:28.624Z,49.80
2018-12-08T03:15:59.250Z,53.47
2018-12-08T03:18:29.605Z,47.27
2018-12-08T03:21:00.645Z,48.13
2018-12-08T03:23:30.925Z,38.20
2018-12-08T03:26:00.885Z,35.47
2018-12-08T03:28:30.685Z,35.57
2018-12-08T03:31:01.256Z,33.30
2018-12-08T03:33:31.526Z,30.63
2018-12-08T03:36:01.704Z,30.73
2018-12-08T03:38:31.963Z,33.70
2018-12-08T03:41:02.419Z,30.87
2018-12-08T03:43:32.740Z,30.17
2018-12-08T03:46:03.125Z,30.47
2018-12-08T03:48:33.289Z,30.23
2018-12-08T03:51:04.174Z,30.80
2018-12-08T03:53:36.874Z,30.40
2018-12-08T03:56:06.941Z,29.43
2018-12-08T03:58:37.416Z,29.27
2018-12-08T04:01:07.744Z,28.43
2018-12-08T04:03:37.827Z,28.97
2018-12-08T04:06:08.206Z,34.93
2018-12-08T04:08:39.580Z,33.43
2018-12-08T04:11:09.814Z,31.70
2018-12-08T04:13:39.910Z,27.77
2018-12-08T04:16:10.277Z,31.70
2018-12-08T04:18:40.375Z,28.87
2018-12-08T04:21:10.636Z,29.00
2018-12-08T04:23:40.867Z,30.13
2018-12-08T04:26:11.134Z,30.90
2018-12-08T04:28:41.615Z,32.83
2018-12-08T04:31:12.746Z,32.03
2018-12-08T04:33:43.071Z,35.53
2018-12-08T04:36:13.524Z,34.87
2018-12-08T04:38:44.087Z,36.93
2018-12-08T04:41:14.160Z,38.90
2018-12-08T04:43:44.474Z,40.63
2018-12-08T04:46:14.928Z,41.43
2018-12-08T04:48:45.246Z,46.13
2018-12-08T04:51:15.312Z,48.77
2018-12-08T04:53:46.346Z,49.63
2018-12-08T04:56:16.876Z,43.40
2018-12-08T04:58:47.458Z,47.63
2018-12-08T05:01:17.330Z,50.87
2018-12-08T05:03:47.902Z,47.80
2018-12-08T05:06:18.938Z,47.90
2018-12-08T05:08:50.189Z,46.40
2018-12-08T05:11:21.300Z,50.53
2018-12-08T05:13:51.759Z,40.17
2018-12-08T05:16:22.677Z,42.93
2018-12-08T05:18:53.155Z,44.23
2018-12-08T05:21:23.367Z,43.57
2018-12-08T05:23:53.165Z,41.67
2018-12-08T05:26:23.866Z,43.33
2018-12-08T05:28:54.407Z,44.37
2018-12-08T05:31:24.937Z,43.20
2018-12-08T05:33:54.813Z,41.43
2018-12-08T05:36:25.455Z,42.63
2018-12-08T05:38:56.521Z,41.23
2018-12-08T05:41:26.568Z,44.27
2018-12-08T05:43:57.145Z,42.43
2018-12-08T05:46:27.595Z,44.50
2018-12-08T05:48:57.978Z,41.60
2018-12-08T05:51:27.910Z,40.67
2018-12-08T05:53:58.096Z,45.53
2018-12-08T05:56:34.588Z,46.27
2018-12-08T05:59:05.275Z,40.67
2018-12-08T06:01:35.227Z,39.57
2018-12-08T06:04:05.525Z,39.50
2018-12-08T06:06:35.680Z,42.40
2018-12-08T06:09:07.484Z,38.07
2018-12-08T06:11:38.004Z,38.70
2018-12-08T06:14:08.201Z,40.77
2018-12-08T06:16:39.048Z,38.10
2018-12-08T06:19:09.614Z,40.70
2018-12-08T06:21:40.700Z,37.87
2018-12-08T06:24:10.814Z,37.77
2018-12-08T06:26:53.286Z,43.13
2018-12-08T06:29:23.897Z,37.80
2018-12-08T06:31:54.096Z,38.53
2018-12-08T06:34:24.038Z,40.17
2018-12-08T06:36:54.229Z,45.50
2018-12-08T06:39:24.415Z,45.70
2018-12-08T06:41:54.584Z,46.33
2018-12-08T06:44:25.102Z,45.00
2018-12-08T06:46:55.148Z,44.37
2018-12-08T06:49:25.226Z,46.57
2018-12-08T06:51:55.596Z,44.63
2018-12-08T06:54:25.816Z,46.43
2018-12-08T06:56:56.567Z,45.13
2018-12-08T06:59:26.638Z,50.83
2018-12-08T07:01:57.017Z,49.87
2018-12-08T07:04:27.672Z,44.43
2018-12-08T07:06:58.045Z,40.23
2018-12-08T07:09:28.389Z,32.53
2018-12-08T07:11:59.006Z,41.47
2018-12-08T07:14:29.443Z,43.10
2018-12-08T07:16:59.712Z,41.73
2018-12-08T07:19:29.551Z,40.13
2018-12-08T07:21:59.796Z,34.70
2018-12-08T07:24:30.358Z,37.67
2018-12-08T07:27:01.318Z,32.93
2018-12-08T07:29:31.776Z,36.23
2018-12-08T07:32:02.972Z,37.27
2018-12-08T07:34:34.143Z,38.47
2018-12-08T07:37:05.059Z,38.13
2018-12-08T07:39:36.519Z,35.90
2018-12-08T07:42:07.593Z,37.53
2018-12-08T07:44:37.929Z,34.03
2018-12-08T07:47:07.977Z,32.60
2018-12-08T07:49:38.267Z,31.03
2018-12-08T07:52:09.487Z,29.53
2018-12-08T07:54:39.968Z,29.53
2018-12-08T07:57:10.228Z,30.20
2018-12-08T07:59:40.855Z,27.50
2018-12-08T08:02:11.037Z,28.63
2018-12-08T08:04:42.495Z,27.80
2018-12-08T08:07:12.926Z,23.63
2018-12-08T08:09:43.135Z,22.50
2018-12-08T08:12:14.007Z,19.93
2018-12-08T08:14:44.190Z,17.57
2018-12-08T08:17:14.168Z,13.67
2018-12-08T08:19:44.548Z,9.87
2018-12-08T08:22:14.709Z,8.70
2018-12-08T08:24:45.764Z,6.73
2018-12-08T08:27:17.187Z,7.47
2018-12-08T08:29:47.410Z,5.83
2018-12-08T08:32:18.014Z,5.40
2018-12-08T08:34:48.598Z,5.93
2018-12-08T08:37:18.945Z,5.20
2018-12-08T08:39:49.893Z,4.13
2018-12-08T08:42:20.697Z,3.43
2018-12-08T08:44:50.834Z,2.90
2018-12-08T08:47:20.755Z,3.37
2018-12-08T08:49:51.058Z,3.20
2018-12-08T08:52:21.249Z,3.17
2018-12-08T08:54:51.479Z,3.40
2018-12-08T08:57:21.700Z,3.20
2018-12-08T08:59:53.143Z,3.10
2018-12-08T09:02:24.491Z,2.37
2018-12-08T09:04:54.454Z,5.47
2018-12-08T09:07:26.115Z,2.67
2018-12-08T09:09:56.496Z,2.60
2018-12-08T09:12:26.751Z,2.83
2018-12-08T09:14:57.179Z,2.30
2018-12-08T09:17:28.645Z,7.87
2018-12-08T09:19:59.383Z,3.03
2018-12-08T09:22:29.846Z,3.27
2018-12-08T09:24:59.920Z,2.93
2018-12-08T09:27:29.836Z,2.33
2018-12-08T09:29:59.821Z,2.93
2018-12-08T09:32:30.002Z,3.20
2018-12-08T09:34:59.903Z,11.30
2018-12-08T09:37:30.118Z,3.10
2018-12-08T09:40:00.101Z,2.80
2018-12-08T09:42:30.920Z,3.37
2018-12-08T09:45:01.227Z,3.70
2018-12-08T09:47:31.381Z,4.03
2018-12-08T09:50:01.915Z,3.60
2018-12-08T09:52:32.474Z,4.63
2018-12-08T09:55:08.120Z,4.83
2018-12-08T09:57:39.089Z,4.07
2018-12-08T10:00:10.006Z,3.40
2018-12-08T10:02:40.524Z,4.60
2018-12-08T10:05:11.724Z,4.43
2018-12-08T10:07:41.748Z,4.97
2018-12-08T10:10:11.845Z,3.50
2018-12-08T10:12:43.083Z,4.57
2018-12-08T10:15:13.741Z,4.47
2018-12-08T10:17:44.295Z,4.30
2018-12-08T10:20:14.431Z,3.77
2018-12-08T10:22:44.774Z,4.27
2018-12-08T10:25:15.409Z,3.80
2018-12-08T10:27:48.141Z,5.00
2018-12-08T10:32:54.661Z,6.30
2018-12-08T10:35:25.437Z,5.80
2018-12-08T10:37:55.400Z,3.23
2018-12-08T10:40:26.094Z,4.37
2018-12-08T10:42:56.245Z,5.63
2018-12-08T10:45:26.745Z,4.20
2018-12-08T10:47:57.915Z,5.10
2018-12-08T10:50:28.310Z,5.87
2018-12-08T10:53:00.818Z,4.20
2018-12-08T10:55:31.309Z,4.33
2018-12-08T10:58:02.154Z,5.57
2018-12-08T11:00:37.423Z,5.10
2018-12-08T11:03:12.818Z,5.27
2018-12-08T11:05:43.286Z,4.70
2018-12-08T11:08:16.565Z,5.07
2018-12-08T11:10:46.682Z,5.23
2018-12-08T11:13:18.193Z,4.03
2018-12-08T11:15:47.930Z,4.80
2018-12-08T11:18:18.089Z,5.03
2018-12-08T11:20:48.099Z,4.60
2018-12-08T11:23:19.068Z,4.83
2018-12-08T11:25:49.604Z,5.17
2018-12-08T11:28:19.459Z,5.67
2018-12-08T11:30:58.406Z,6.23
2018-12-08T11:33:31.138Z,6.40
2018-12-08T11:36:01.459Z,6.33
2018-12-08T11:38:31.752Z,6.17
2018-12-08T11:41:01.598Z,7.13
2018-12-08T11:43:31.723Z,6.73
2018-12-08T11:46:02.114Z,6.70
2018-12-08T11:48:32.968Z,7.60
2018-12-08T11:51:03.439Z,7.00
2018-12-08T11:53:34.335Z,7.93
2018-12-08T11:56:04.982Z,6.27
2018-12-08T11:58:35.595Z,8.40
2018-12-08T12:01:06.315Z,7.60
2018-12-08T12:03:36.851Z,5.87
2018-12-08T12:06:08.344Z,6.83
2018-12-08T12:08:38.858Z,7.10
2018-12-08T12:11:09.663Z,6.47
2018-12-08T12:13:40.546Z,6.13
2018-12-08T12:16:11.244Z,7.17
2018-12-08T12:18:41.087Z,6.10
2018-12-08T12:21:11.010Z,5.57
2018-12-08T12:23:41.557Z,5.70
2018-12-08T12:26:12.115Z,6.27
2018-12-08T12:28:43.269Z,5.90
2018-12-08T12:31:13.462Z,6.53
2018-12-08T12:33:43.721Z,5.60
2018-12-08T12:36:13.659Z,5.40
2018-12-08T12:38:43.728Z,5.47
2018-12-08T12:41:14.503Z,6.17
2018-12-08T12:43:44.836Z,6.60
2018-12-08T12:46:15.520Z,6.23
2018-12-08T12:48:46.005Z,5.13
2018-12-08T12:51:16.767Z,7.10
2018-12-08T12:53:46.934Z,7.00
2018-12-08T12:56:17.790Z,7.53
2018-12-08T12:58:48.396Z,8.53
2018-12-08T13:01:19.254Z,6.57
2018-12-08T13:03:50.029Z,7.43
2018-12-08T13:06:20.340Z,7.67
2018-12-08T13:08:51.206Z,8.00
2018-12-08T13:11:22.602Z,8.20
2018-12-08T13:13:54.232Z,7.07
2018-12-08T13:16:24.688Z,7.30
2018-12-08T13:18:55.112Z,7.60
2018-12-08T13:21:26.150Z,8.80
2018-12-08T13:23:56.032Z,8.23
2018-12-08T13:26:26.771Z,8.63
2018-12-08T13:28:56.997Z,8.50
2018-12-08T13:31:27.013Z,9.77
2018-12-08T13:33:57.369Z,8.10
2018-12-08T13:36:27.908Z,9.17
2018-12-08T13:38:58.554Z,9.07
2018-12-08T13:41:28.969Z,9.97
2018-12-08T13:44:03.173Z,9.37
2018-12-08T13:46:33.514Z,7.83
2018-12-08T13:49:03.947Z,8.07
2018-12-08T13:51:34.281Z,8.97
2018-12-08T13:54:06.869Z,8.27
2018-12-08T13:56:37.189Z,8.47
2018-12-08T13:59:07.083Z,8.83
2018-12-08T14:01:37.246Z,9.10
2018-12-08T14:04:08.402Z,9.77
2018-12-08T14:06:38.362Z,9.50
2018-12-08T14:09:09.322Z,16.77
2018-12-08T14:11:39.715Z,9.30
2018-12-08T14:14:10.064Z,19.03
2018-12-08T14:16:40.324Z,9.03
2018-12-08T14:19:10.739Z,9.93
2018-12-08T14:21:40.880Z,8.63
2018-12-08T14:24:11.520Z,8.63
2018-12-08T14:26:41.504Z,10.27
2018-12-08T14:29:12.118Z,10.03
2018-12-08T14:31:43.411Z,11.20
2018-12-08T14:34:13.488Z,11.83
2018-12-08T14:36:43.946Z,13.53
2018-12-08T14:39:15.166Z,11.13
2018-12-08T14:41:45.604Z,10.20
2018-12-08T14:44:16.086Z,10.07
2018-12-08T14:46:46.632Z,9.00
2018-12-08T14:49:17.474Z,8.37
2018-12-08T14:51:48.258Z,10.10
2018-12-08T14:54:18.398Z,9.57
2018-12-08T14:56:48.856Z,10.47
2018-12-08T14:59:19.536Z,8.70
2018-12-08T15:01:49.974Z,8.90
2018-12-08T15:04:20.850Z,8.70
2018-12-08T15:06:51.466Z,11.13
2018-12-08T15:09:21.667Z,9.03
2018-12-08T15:11:52.356Z,11.57
2018-12-08T15:14:22.578Z,11.00
2018-12-08T15:16:53.009Z,11.20
2018-12-08T15:19:23.762Z,12.07
2018-12-08T15:21:55.423Z,14.73
2018-12-08T15:24:26.064Z,16.10
2018-12-08T15:26:56.658Z,15.37
2018-12-08T15:29:27.841Z,16.80
2018-12-08T15:31:58.715Z,17.53
2018-12-08T15:34:28.963Z,16.83
2018-12-08T15:36:58.927Z,16.47
2018-12-08T15:39:29.257Z,14.67
2018-12-08T15:41:59.320Z,17.60
2018-12-08T15:44:29.359Z,14.47
2018-12-08T15:46:59.503Z,14.30
2018-12-08T15:49:29.937Z,13.60
2018-12-08T15:52:00.951Z,13.90
2018-12-08T15:54:31.574Z,13.97
2018-12-08T15:57:02.508Z,13.20
2018-12-08T15:59:33.144Z,16.93
2018-12-08T16:02:03.619Z,13.63
2018-12-08T16:04:33.785Z,12.27
2018-12-08T16:07:04.344Z,11.23
2018-12-08T16:09:35.061Z,9.97
2018-12-08T16:12:05.408Z,9.70
2018-12-08T16:14:35.773Z,9.93
2018-12-08T16:17:05.954Z,8.63
2018-12-08T16:19:36.477Z,8.80
2018-12-08T16:22:06.699Z,11.57
2018-12-08T16:24:36.920Z,9.30
2018-12-08T16:27:07.346Z,8.77
2018-12-08T16:29:37.833Z,8.17
2018-12-08T16:32:08.566Z,6.40
2018-12-08T16:34:39.080Z,9.37
2018-12-08T16:37:09.476Z,8.60
2018-12-08T16:39:39.489Z,8.07
2018-12-08T16:42:09.576Z,9.37
2018-12-08T16:44:40.765Z,8.60
2018-12-08T16:47:11.181Z,6.57
2018-12-08T16:49:44.791Z,12.43
2018-12-08T16:52:16.591Z,13.87
2018-12-08T16:54:47.674Z,8.60
2018-12-08T16:57:19.673Z,10.50
2018-12-08T16:59:50.153Z,6.73
2018-12-08T17:02:21.569Z,10.30
2018-12-08T17:04:52.264Z,8.30
2018-12-08T17:07:28.889Z,7.83
2018-12-08T17:09:59.431Z,7.10
2018-12-08T17:12:29.737Z,8.77
2018-12-08T17:15:01.737Z,8.43
2018-12-08T17:17:33.229Z,9.73
2018-12-08T17:20:03.859Z,11.10
2018-12-08T17:22:35.523Z,7.53
2018-12-08T17:25:06.124Z,9.57
2018-12-08T17:27:38.112Z,9.50
2018-12-08T17:30:08.789Z,9.13
2018-12-08T17:32:39.453Z,8.43
2018-12-08T17:35:12.260Z,10.17
2018-12-08T17:37:43.850Z,8.83
2018-12-08T17:40:14.824Z,9.20
2018-12-08T17:42:45.452Z,9.33
2018-12-08T17:45:15.865Z,10.90
2018-12-08T17:47:47.041Z,10.37
2018-12-08T17:50:18.460Z,10.30
2018-12-08T17:52:51.404Z,6.60
2018-12-08T17:55:21.833Z,10.67
2018-12-08T17:57:55.239Z,8.73
2018-12-08T18:00:28.338Z,11.77
2018-12-08T18:02:59.053Z,11.83
2018-12-08T18:05:29.933Z,12.37
2018-12-08T18:08:00.719Z,13.33
2018-12-08T18:13:06.984Z,13.07
2018-12-08T18:15:37.668Z,10.97
2018-12-08T18:18:07.825Z,13.50
2018-12-08T18:20:39.912Z,11.37
2018-12-08T18:23:10.337Z,11.20
2018-12-08T18:25:40.309Z,13.07
2018-12-08T18:28:10.920Z,12.30
2018-12-08T18:30:42.350Z,12.73
2018-12-08T18:33:14.746Z,11.93
2018-12-08T18:35:45.090Z,11.57
2018-12-08T18:38:15.469Z,9.83
2018-12-08T18:40:49.253Z,12.67
2018-12-08T18:43:19.870Z,13.73
2018-12-08T18:45:49.784Z,10.83
2018-12-08T18:48:25.030Z,14.00
2018-12-08T18:50:55.479Z,14.70
2018-12-08T18:53:25.904Z,12.90
2018-12-08T18:55:57.233Z,13.80
2018-12-08T18:58:27.993Z,15.50
2018-12-08T19:01:00.238Z,14.10
2018-12-08T19:03:31.048Z,11.37
2018-12-08T19:06:01.351Z,13.93
2018-12-08T19:08:31.615Z,13.50
2018-12-08T19:11:05.729Z,12.17
2018-12-08T19:13:38.423Z,12.50
2018-12-08T19:16:09.343Z,14.33
2018-12-08T19:18:40.735Z,13.33
2018-12-08T19:21:11.671Z,13.87
2018-12-08T19:23:43.781Z,10.97
2018-12-08T19:26:15.393Z,12.47
2018-12-08T19:28:47.798Z,14.20
2018-12-08T19:31:20.139Z,13.43
2018-12-08T19:33:51.391Z,12.33
2018-12-08T19:36:22.488Z,13.03
2018-12-08T19:38:53.396Z,12.53
2018-12-08T19:41:23.820Z,11.43
2018-12-08T19:43:54.232Z,11.67
2018-12-08T19:46:24.997Z,12.13
2018-12-08T19:48:55.911Z,12.70
2018-12-08T19:51:26.476Z,12.30
2018-12-08T19:53:57.178Z,15.23
2018-12-08T19:56:27.173Z,10.37
2018-12-08T19:59:03.266Z,10.47
2018-12-08T20:01:34.113Z,12.97
2018-12-08T20:04:04.412Z,12.07
2018-12-08T20:06:35.578Z,11.27
2018-12-08T20:09:08.809Z,11.70
2018-12-08T20:11:39.208Z,12.33
2018-12-08T20:14:11.199Z,11.73
2018-12-08T20:16:43.095Z,14.07
2018-12-08T20:19:13.956Z,10.03
2018-12-08T20:21:45.110Z,12.43
2018-12-08T20:24:18.353Z,14.77
2018-12-08T20:26:49.826Z,13.13
2018-12-08T20:29:20.781Z,11.10
2018-12-08T20:31:51.759Z,12.57
2018-12-08T20:34:23.802Z,11.23
2018-12-08T20:36:54.648Z,11.13
2018-12-08T20:39:25.182Z,13.63
2018-12-08T20:41:57.377Z,12.17
2018-12-08T20:44:40.350Z,12.80
2018-12-08T20:47:15.600Z,13.67
2018-12-08T20:49:46.509Z,11.00
2018-12-08T20:54:50.631Z,13.17
2018-12-08T20:57:20.733Z,10.10
2018-12-08T20:59:51.805Z,12.00
2018-12-08T21:02:22.972Z,10.53
2018-12-08T21:04:58.299Z,12.50
2018-12-08T21:07:30.470Z,12.20
2018-12-08T21:10:01.941Z,13.03
2018-12-08T21:12:32.572Z,14.30
2018-12-08T21:15:04.117Z,13.00
2018-12-08T21:17:34.389Z,10.23
2018-12-08T21:20:06.078Z,11.70
2018-12-08T21:22:36.522Z,12.50
2018-12-08T21:25:07.434Z,22.03
2018-12-08T21:27:37.741Z,13.30
2018-12-08T21:30:08.665Z,12.20
2018-12-08T21:32:39.345Z,11.70
2018-12-08T21:35:09.956Z,11.40
2018-12-08T21:37:41.240Z,11.87
2018-12-08T21:40:30.712Z,11.57
2018-12-08T21:43:00.608Z,12.07
2018-12-08T21:45:30.739Z,10.73
2018-12-08T21:48:01.714Z,11.77
2018-12-08T21:50:32.504Z,15.10
2018-12-08T21:53:08.510Z,11.40
2018-12-08T21:55:38.909Z,11.23
2018-12-08T21:58:10.415Z,9.20
2018-12-08T22:00:42.367Z,11.90
2018-12-08T22:03:13.257Z,11.53
2018-12-08T22:05:43.794Z,12.97
2018-12-08T22:08:14.776Z,9.53
2018-12-08T22:10:46.298Z,13.40
2018-12-08T22:13:16.580Z,11.67
2018-12-08T22:15:47.642Z,12.13
2018-12-08T22:18:17.548Z,12.70
2018-12-08T22:20:47.728Z,12.47
2018-12-08T22:23:18.367Z,9.50
2018-12-08T22:25:49.247Z,12.30
2018-12-08T22:28:21.421Z,12.97
2018-12-08T22:30:51.872Z,15.30
2018-12-08T22:33:23.395Z,13.23
2018-12-08T22:35:55.530Z,12.93
2018-12-08T22:38:27.085Z,11.77
2018-12-08T22:40:58.200Z,13.40
2018-12-08T22:43:28.309Z,13.20
2018-12-08T22:45:58.510Z,12.50
2018-12-08T22:48:29.938Z,14.23
2018-12-08T22:51:00.882Z,9.53
2018-12-08T22:53:32.822Z,13.77
2018-12-08T22:56:03.547Z,14.43
2018-12-08T22:58:33.206Z,12.07
2018-12-08T23:01:04.408Z,12.63
2018-12-08T23:03:35.102Z,12.33
2018-12-08T23:06:05.245Z,14.20
2018-12-08T23:08:35.860Z,14.67
2018-12-08T23:11:06.437Z,14.80
2018-12-08T23:13:38.057Z,11.47
2018-12-08T23:16:08.666Z,10.63
2018-12-08T23:18:38.624Z,13.60
2018-12-08T23:21:08.553Z,14.10
2018-12-08T23:23:39.345Z,9.70
2018-12-08T23:26:09.850Z,13.80
2018-12-08T23:28:40.200Z,11.13
2018-12-08T23:31:10.419Z,11.17
2018-12-08T23:33:41.333Z,11.23
2018-12-08T23:36:12.056Z,10.60
2018-12-08T23:38:42.958Z,10.87
2018-12-08T23:41:14.178Z,13.47
2018-12-08T23:43:45.036Z,10.13
2018-12-08T23:46:15.264Z,11.93
2018-12-08T23:48:45.175Z,11.53
2018-12-08T23:51:15.648Z,10.33
2018-12-08T23:53:46.245Z,11.73
2018-12-08T23:56:17.383Z,13.80
2018-12-08T23:58:47.923Z,12.23
